Time;durP1;ratioP1;P1;durP2;ratioP2;P2;SDS_P1;SDS_P2;PMS_P1;PMS_P2;Temp;Humidity;BMP_temperature;BMP_pressure;BME280_temperature;BME280_humidity;BME280_pressure;Samples;Min_cycle;Max_cycle;Signal;HPM_P1;HPM_P2
2023/08/31 00:01:04;;;;;;;3.40;3.20;;;17.00;99.90;;;;;;5036691;28;20993;-54
2023/08/31 00:03:30;;;;;;;3.13;2.83;;;16.90;99.90;;;;;;5037836;28;20199;-56
2023/08/31 00:05:56;;;;;;;3.60;2.90;;;17.00;99.90;;;;;;5038378;28;20728;-56
2023/08/31 00:08:22;;;;;;;3.53;2.93;;;17.10;99.90;;;;;;5021723;28;20202;-56
2023/08/31 00:10:58;;;;;;;3.03;2.83;;;17.10;99.90;;;;;;5012074;28;20199;-54
2023/08/31 00:13:24;;;;;;;3.13;2.83;;;17.10;99.90;;;;;;5037996;28;20331;-54
2023/08/31 00:15:49;;;;;;;3.13;2.83;;;16.90;99.90;;;;;;5038471;28;20576;-54
2023/08/31 00:18:16;;;;;;;3.60;3.30;;;16.80;99.90;;;;;;5037320;28;20214;-54
2023/08/31 00:20:42;;;;;;;3.53;3.33;;;16.90;99.90;;;;;;5033946;28;20646;-54
2023/08/31 00:23:08;;;;;;;3.90;3.30;;;16.90;99.90;;;;;;5022233;28;20194;-54
2023/08/31 00:25:33;;;;;;;3.50;3.20;;;16.80;99.90;;;;;;5042354;28;20197;-54
2023/08/31 00:28:04;;;;;;;3.60;3.30;;;16.70;99.90;;;;;;5032292;28;20195;-54
2023/08/31 00:30:31;;;;;;;3.50;3.20;;;16.70;99.90;;;;;;5015947;28;20238;-54
2023/08/31 00:32:59;;;;;;;4.03;3.17;;;16.60;99.90;;;;;;5034670;28;20218;-54
2023/08/31 00:35:26;;;;;;;3.47;3.10;;;16.50;99.90;;;;;;5010615;28;21075;-54
2023/08/31 00:37:55;;;;;;;3.77;2.60;;;16.50;99.90;;;;;;5031254;28;20244;-55
2023/08/31 00:40:20;;;;;;;3.93;3.63;;;16.50;99.90;;;;;;5016916;28;20678;-54
2023/08/31 00:42:46;;;;;;;3.40;3.10;;;16.30;99.90;;;;;;5035531;28;20733;-55
2023/08/31 00:45:11;;;;;;;4.30;3.63;;;16.40;99.90;;;;;;5039010;28;20916;-55
2023/08/31 00:47:37;;;;;;;4.07;3.40;;;16.30;99.90;;;;;;5041804;28;20227;-53
2023/08/31 00:50:03;;;;;;;3.20;3.00;;;16.10;99.90;;;;;;5029138;28;20695;-54
2023/08/31 00:52:29;;;;;;;3.73;3.47;;;16.20;99.90;;;;;;5034750;28;20230;-54
2023/08/31 00:54:55;;;;;;;6.77;3.50;;;16.30;99.90;;;;;;5020357;28;20749;-54
2023/08/31 00:57:20;;;;;;;3.73;3.53;;;16.30;99.90;;;;;;5040922;28;20195;-54
2023/08/31 00:59:46;;;;;;;3.90;3.60;;;16.40;99.90;;;;;;5033670;28;20207;-55
2023/08/31 01:02:22;;;;;;;4.17;3.87;;;16.50;99.90;;;;;;5016359;28;20192;-54
2023/08/31 01:05:00;;;;;;;3.70;3.40;;;16.40;99.90;;;;;;5041162;28;20256;-55
2023/08/31 01:07:54;;;;;;;4.33;3.93;;;16.30;99.90;;;;;;5040673;28;20202;-54
2023/08/31 01:10:48;;;;;;;4.43;4.03;;;16.20;99.90;;;;;;5036070;28;20229;-54
2023/08/31 01:13:16;;;;;;;4.47;4.07;;;16.20;99.90;;;;;;5019680;28;20222;-56
2023/08/31 01:15:46;;;;;;;4.77;4.47;;;16.30;99.90;;;;;;5032856;28;20214;-54
2023/08/31 01:18:15;;;;;;;5.23;4.83;;;16.00;99.90;;;;;;5028743;28;20206;-55
2023/08/31 01:21:12;;;;;;;4.83;4.43;;;15.80;99.90;;;;;;5035701;28;20225;-54
2023/08/31 01:23:54;;;;;;;4.47;4.10;;;15.80;99.90;;;;;;5039088;28;20611;-55
2023/08/31 01:26:20;;;;;;;4.67;4.27;;;15.70;99.90;;;;;;5021769;28;20248;-55
2023/08/31 01:28:48;;;;;;;4.43;4.03;;;15.60;99.90;;;;;;5019179;28;20207;-53
2023/08/31 01:31:14;;;;;;;3.77;3.50;;;15.50;99.90;;;;;;5038766;28;20203;-54
2023/08/31 01:33:40;;;;;;;4.27;3.87;;;15.50;99.90;;;;;;5020825;28;20226;-54
2023/08/31 01:36:13;;;;;;;4.03;3.63;;;15.50;99.90;;;;;;5013660;28;20252;-53
2023/08/31 01:38:44;;;;;;;3.40;3.20;;;15.40;99.90;;;;;;5038074;28;20226;-53
2023/08/31 01:41:13;;;;;;;3.43;3.23;;;15.40;99.90;;;;;;5043585;28;20210;-53
2023/08/31 01:43:41;;;;;;;3.03;2.73;;;15.40;99.90;;;;;;5039700;28;20623;-55
2023/08/31 01:46:07;;;;;;;3.10;2.90;;;15.20;99.90;;;;;;5036955;28;20222;-54
2023/08/31 01:48:39;;;;;;;3.57;3.27;;;15.10;99.90;;;;;;5041231;28;20621;-54
2023/08/31 01:51:05;;;;;;;3.17;2.97;;;15.20;99.90;;;;;;5043427;28;20304;-54
2023/08/31 01:53:31;;;;;;;3.13;2.93;;;15.20;99.90;;;;;;5037961;28;20206;-54
2023/08/31 01:55:56;;;;;;;3.10;2.80;;;15.20;99.90;;;;;;5035623;28;20276;-54
2023/08/31 01:58:22;;;;;;;2.80;2.60;;;15.20;99.90;;;;;;5038184;28;20202;-54
2023/08/31 02:00:48;;;;;;;2.90;2.70;;;15.20;99.90;;;;;;5026812;28;20685;-54
2023/08/31 02:03:13;;;;;;;3.00;2.80;;;15.00;99.90;;;;;;5044190;28;20206;-54
2023/08/31 02:05:39;;;;;;;3.13;2.93;;;15.00;99.90;;;;;;5025362;28;20208;-53
2023/08/31 02:08:04;;;;;;;2.47;2.37;;;14.90;99.90;;;;;;5020224;28;20199;-53
2023/08/31 02:10:30;;;;;;;2.20;2.03;;;14.80;99.90;;;;;;5020820;28;20190;-53
2023/08/31 02:12:56;;;;;;;3.00;2.33;;;14.80;99.90;;;;;;5035716;28;20199;-60
2023/08/31 02:15:21;;;;;;;2.30;2.20;;;14.70;99.90;;;;;;5026052;28;20761;-55
2023/08/31 02:17:47;;;;;;;2.73;2.53;;;14.70;99.90;;;;;;5025114;28;20201;-62
2023/08/31 02:20:14;;;;;;;1.93;1.83;;;14.60;99.90;;;;;;5038775;28;20258;-54
2023/08/31 02:22:39;;;;;;;2.80;2.60;;;14.60;99.90;;;;;;5038274;28;20277;-54
2023/08/31 02:25:06;;;;;;;2.57;2.37;;;14.80;99.90;;;;;;5035617;28;20294;-55
2023/08/31 02:27:31;;;;;;;2.30;2.20;;;14.70;99.90;;;;;;5039532;28;20213;-54
2023/08/31 02:29:57;;;;;;;2.77;2.57;;;14.90;99.90;;;;;;5036461;28;20194;-54
2023/08/31 02:32:23;;;;;;;2.30;2.20;;;15.00;99.90;;;;;;5039183;28;20251;-54
2023/08/31 02:34:49;;;;;;;2.97;2.57;;;14.80;99.90;;;;;;5042801;28;20233;-55
2023/08/31 02:37:14;;;;;;;2.10;2.00;;;14.80;99.90;;;;;;5034139;28;20232;-54
2023/08/31 02:39:40;;;;;;;2.53;2.33;;;15.00;99.90;;;;;;5021345;28;20709;-54
2023/08/31 02:42:05;;;;;;;2.60;2.40;;;14.90;99.90;;;;;;5037695;28;20210;-54
2023/08/31 02:44:31;;;;;;;2.77;2.57;;;14.70;99.90;;;;;;5033617;28;20829;-54
2023/08/31 02:46:57;;;;;;;2.80;2.60;;;14.80;99.90;;;;;;5038328;28;20229;-54
2023/08/31 02:49:22;;;;;;;2.43;2.23;;;14.90;99.90;;;;;;5039476;28;20531;-54
2023/08/31 02:51:49;;;;;;;5.20;2.67;;;14.80;99.90;;;;;;5035600;28;20301;-54
2023/08/31 02:54:14;;;;;;;2.50;2.30;;;14.80;99.90;;;;;;5037496;28;20978;-53
2023/08/31 02:56:40;;;;;;;2.53;2.40;;;14.80;99.90;;;;;;5042916;28;20202;-53
2023/08/31 02:59:06;;;;;;;2.70;2.50;;;14.90;99.90;;;;;;5022420;28;20249;-54
2023/08/31 03:01:31;;;;;;;1.83;1.73;;;15.00;99.90;;;;;;5022262;28;20671;-55
2023/08/31 03:03:56;;;;;;;3.17;2.77;;;15.00;99.90;;;;;;5045533;28;20199;-59
2023/08/31 03:06:22;;;;;;;3.07;2.63;;;15.00;99.90;;;;;;5045197;28;20777;-54
2023/08/31 03:08:47;;;;;;;2.80;2.60;;;15.10;99.90;;;;;;5039645;28;20194;-54
2023/08/31 03:11:16;;;;;;;2.13;2.03;;;15.00;99.90;;;;;;5037728;28;20194;-54
2023/08/31 03:13:41;;;;;;;2.43;2.23;;;15.10;99.90;;;;;;5019142;28;20238;-54
2023/08/31 03:16:07;;;;;;;3.37;2.27;;;14.90;99.90;;;;;;5041669;28;20234;-54
2023/08/31 03:18:33;;;;;;;2.20;2.00;;;15.00;99.90;;;;;;5027771;28;20252;-54
2023/08/31 03:20:58;;;;;;;2.50;2.30;;;14.90;99.90;;;;;;5016192;28;20195;-54
2023/08/31 03:23:25;;;;;;;2.73;2.27;;;14.70;99.90;;;;;;5034700;28;20578;-55
2023/08/31 03:25:50;;;;;;;2.70;2.50;;;14.80;99.90;;;;;;5042528;28;20205;-54
2023/08/31 03:28:16;;;;;;;2.20;2.10;;;14.80;99.90;;;;;;5037975;28;20190;-55
2023/08/31 03:30:44;;;;;;;2.40;2.20;;;14.90;99.90;;;;;;5046014;28;20230;-54
2023/08/31 03:33:10;;;;;;;3.27;2.57;;;14.90;99.90;;;;;;5031327;28;20204;-58
2023/08/31 03:35:35;;;;;;;2.40;2.20;;;14.90;99.90;;;;;;5036210;28;20682;-54
2023/08/31 03:38:01;;;;;;;2.27;2.13;;;15.00;99.90;;;;;;5034490;28;20202;-54
2023/08/31 03:40:26;;;;;;;2.47;2.27;;;14.90;99.90;;;;;;5035121;28;20230;-54
2023/08/31 03:42:53;;;;;;;2.63;2.43;;;15.00;99.90;;;;;;5037569;28;20922;-54
2023/08/31 03:45:19;;;;;;;2.40;2.27;;;15.00;99.90;;;;;;5029257;28;20755;-54
2023/08/31 03:47:45;;;;;;;2.80;2.60;;;15.00;99.90;;;;;;5040628;28;20218;-54
2023/08/31 03:50:10;;;;;;;3.43;2.80;;;15.00;99.90;;;;;;5040871;28;22815;-54
2023/08/31 03:52:36;;;;;;;3.20;2.90;;;14.90;99.90;;;;;;5020138;28;20194;-54
2023/08/31 03:55:01;;;;;;;3.63;3.03;;;14.90;99.90;;;;;;5017519;28;20310;-54
2023/08/31 03:57:27;;;;;;;3.83;3.47;;;14.80;99.90;;;;;;5038068;28;20195;-54
2023/08/31 03:59:52;;;;;;;4.50;3.87;;;14.70;99.90;;;;;;5033237;28;20677;-54
2023/08/31 04:02:18;;;;;;;4.00;3.70;;;14.50;99.90;;;;;;5034524;28;20191;-54
2023/08/31 04:04:43;;;;;;;7.50;4.53;;;14.40;99.90;;;;;;5035934;28;20306;-61
2023/08/31 04:07:09;;;;;;;4.90;4.40;;;14.50;99.90;;;;;;5038231;28;20206;-57
2023/08/31 04:09:34;;;;;;;5.40;3.70;;;14.40;99.90;;;;;;5030744;28;20727;-56
2023/08/31 04:12:00;;;;;;;4.83;4.10;;;14.50;99.90;;;;;;5010516;28;20282;-53
2023/08/31 04:14:29;;;;;;;4.30;4.00;;;14.50;99.90;;;;;;5024969;28;20210;-53
2023/08/31 04:16:55;;;;;;;5.03;4.07;;;14.50;99.90;;;;;;5040040;28;20206;-54
2023/08/31 04:19:20;;;;;;;5.47;4.40;;;14.50;99.90;;;;;;5030428;28;20731;-54
2023/08/31 04:21:46;;;;;;;5.27;4.77;;;14.50;99.90;;;;;;5030715;28;20198;-54
2023/08/31 04:24:11;;;;;;;6.93;4.83;;;14.50;99.90;;;;;;5029599;28;20190;-55
2023/08/31 04:26:37;;;;;;;5.50;5.00;;;14.60;99.90;;;;;;5034592;28;20244;-54
2023/08/31 04:29:05;;;;;;;6.33;4.40;;;14.60;99.90;;;;;;5038598;28;20311;-54
2023/08/31 04:31:31;;;;;;;6.67;5.40;;;14.60;99.90;;;;;;5031562;28;20222;-54
2023/08/31 04:33:57;;;;;;;5.83;5.33;;;14.40;99.90;;;;;;5004553;28;20222;-55
2023/08/31 04:36:22;;;;;;;6.17;5.57;;;14.40;99.90;;;;;;5032027;28;20214;-56
2023/08/31 04:38:49;;;;;;;5.53;5.03;;;14.40;99.90;;;;;;5007415;28;20193;-55
2023/08/31 04:41:14;;;;;;;6.23;5.50;;;14.50;99.90;;;;;;5036714;28;20198;-54
2023/08/31 04:43:40;;;;;;;6.63;5.87;;;14.60;99.90;;;;;;5027922;28;20844;-56
2023/08/31 04:46:06;;;;;;;6.27;5.67;;;14.40;99.90;;;;;;5031271;28;20202;-55
2023/08/31 04:48:32;;;;;;;7.27;6.07;;;14.50;99.90;;;;;;5035219;28;20312;-55
2023/08/31 04:50:57;;;;;;;7.53;5.77;;;14.60;99.90;;;;;;5042499;28;20691;-55
2023/08/31 04:53:23;;;;;;;6.67;6.07;;;14.60;99.90;;;;;;5032930;28;20215;-54
2023/08/31 04:55:48;;;;;;;6.17;5.67;;;14.50;99.90;;;;;;5035432;28;20199;-53
2023/08/31 04:58:14;;;;;;;6.37;5.60;;;14.50;99.90;;;;;;5036077;28;20194;-53
2023/08/31 05:00:39;;;;;;;7.23;6.53;;;14.20;99.90;;;;;;5039801;28;20237;-53
2023/08/31 05:03:06;;;;;;;6.93;5.70;;;14.20;99.90;;;;;;5030532;28;20225;-52
2023/08/31 05:05:31;;;;;;;5.50;5.00;;;14.30;99.90;;;;;;5017230;28;20642;-52
2023/08/31 05:07:57;;;;;;;6.83;6.13;;;14.40;99.90;;;;;;5031638;28;20285;-52
2023/08/31 05:10:23;;;;;;;8.70;6.67;;;14.30;99.90;;;;;;5017155;28;20201;-53
2023/08/31 05:12:48;;;;;;;7.23;6.63;;;14.30;99.90;;;;;;5035482;28;20305;-53
2023/08/31 05:15:14;;;;;;;7.93;7.13;;;14.30;99.90;;;;;;5036373;28;20194;-52
2023/08/31 05:17:39;;;;;;;6.70;6.10;;;14.20;99.90;;;;;;5021310;28;20230;-52
2023/08/31 05:20:08;;;;;;;7.93;7.13;;;14.30;99.90;;;;;;5037493;28;20681;-52
2023/08/31 05:22:34;;;;;;;7.87;6.83;;;14.50;99.90;;;;;;5035350;28;20206;-54
2023/08/31 05:25:00;;;;;;;8.07;6.63;;;14.40;99.90;;;;;;5021126;28;20233;-52
2023/08/31 05:27:26;;;;;;;7.17;6.50;;;14.50;99.90;;;;;;5040858;28;20455;-52
2023/08/31 05:29:51;;;;;;;6.93;6.20;;;14.50;99.90;;;;;;5044200;28;20362;-52
2023/08/31 05:32:17;;;;;;;8.00;7.20;;;14.40;99.90;;;;;;5041187;28;20547;-53
2023/08/31 05:34:42;;;;;;;7.17;6.50;;;14.40;99.90;;;;;;5043303;28;20218;-52
2023/08/31 05:37:08;;;;;;;7.77;6.97;;;14.40;99.90;;;;;;5036979;28;20375;-53
2023/08/31 05:39:34;;;;;;;8.23;7.43;;;14.50;99.90;;;;;;5042860;28;20754;-52
2023/08/31 05:42:00;;;;;;;8.93;7.83;;;14.60;99.90;;;;;;5042957;28;20229;-53
2023/08/31 05:44:25;;;;;;;8.63;7.40;;;14.50;99.90;;;;;;5034188;28;20601;-53
2023/08/31 05:46:51;;;;;;;8.33;7.57;;;14.50;99.90;;;;;;5040825;28;20301;-53
2023/08/31 05:49:16;;;;;;;7.53;6.73;;;14.50;99.90;;;;;;5041121;28;20202;-53
2023/08/31 05:51:42;;;;;;;8.60;7.13;;;14.60;99.90;;;;;;5022938;28;20214;-53
2023/08/31 05:54:11;;;;;;;9.33;7.60;;;14.60;99.90;;;;;;5043996;28;20748;-53
2023/08/31 05:56:40;;;;;;;6.63;6.03;;;14.60;99.90;;;;;;5044049;28;20195;-53
2023/08/31 05:59:07;;;;;;;8.67;7.67;;;14.70;99.90;;;;;;5040818;28;20217;-53
2023/08/31 06:01:34;;;;;;;8.50;7.00;;;14.80;99.90;;;;;;5041162;28;20260;-52
2023/08/31 06:04:00;;;;;;;7.97;7.17;;;14.70;99.90;;;;;;5043319;28;20897;-53
2023/08/31 06:06:25;;;;;;;8.30;7.57;;;14.80;99.90;;;;;;5043979;28;20251;-53
2023/08/31 06:08:51;;;;;;;9.97;6.70;;;14.70;99.90;;;;;;5042950;28;20687;-54
2023/08/31 06:11:16;;;;;;;7.87;7.07;;;14.70;99.90;;;;;;5043975;28;20198;-54
2023/08/31 06:13:42;;;;;;;7.57;6.77;;;14.70;99.90;;;;;;5023337;28;20222;-54
2023/08/31 06:16:07;;;;;;;7.27;6.67;;;14.80;99.90;;;;;;5044456;28;20321;-55
2023/08/31 06:18:34;;;;;;;7.23;6.53;;;14.90;99.90;;;;;;5039757;28;21039;-55
2023/08/31 06:20:59;;;;;;;8.03;7.23;;;14.80;99.90;;;;;;5041760;28;20194;-55
2023/08/31 06:23:25;;;;;;;10.13;7.40;;;14.80;99.90;;;;;;5043348;28;20206;-55
2023/08/31 06:25:50;;;;;;;7.67;6.77;;;14.70;99.90;;;;;;5042515;28;20179;-55
2023/08/31 06:28:16;;;;;;;8.57;6.93;;;14.80;99.90;;;;;;5038510;28;20260;-55
2023/08/31 06:30:46;;;;;;;7.37;6.63;;;14.70;99.90;;;;;;5042476;28;20225;-54
2023/08/31 06:33:13;;;;;;;8.60;7.70;;;14.80;99.90;;;;;;5023905;28;20778;-55
2023/08/31 06:35:38;;;;;;;8.27;7.20;;;14.80;99.90;;;;;;5043836;28;20183;-54
2023/08/31 06:38:04;;;;;;;7.50;6.80;;;14.90;99.90;;;;;;5042630;28;20260;-54
2023/08/31 06:40:30;;;;;;;9.50;7.40;;;15.00;99.90;;;;;;5036897;28;20927;-54
2023/08/31 06:42:55;;;;;;;7.87;7.17;;;15.00;99.90;;;;;;5041676;28;20199;-55
2023/08/31 06:45:20;;;;;;;7.83;7.00;;;15.10;99.90;;;;;;5036910;28;20226;-55
2023/08/31 06:47:46;;;;;;;8.10;7.40;;;15.20;99.90;;;;;;5042120;28;20326;-55
2023/08/31 06:50:11;;;;;;;8.63;7.43;;;15.00;99.90;;;;;;5042358;28;20215;-55
2023/08/31 06:52:37;;;;;;;8.20;7.53;;;14.90;99.90;;;;;;5023795;28;20191;-53
2023/08/31 06:55:03;;;;;;;10.73;7.83;;;15.00;99.90;;;;;;5022008;28;20578;-57
2023/08/31 06:57:28;;;;;;;7.60;6.90;;;14.90;99.90;;;;;;5042452;28;20206;-56
2023/08/31 06:59:54;;;;;;;8.20;7.23;;;14.90;99.90;;;;;;5042297;28;20198;-60
2023/08/31 07:02:22;;;;;;;9.47;7.13;;;14.90;99.90;;;;;;5023683;28;20191;-58
2023/08/31 07:04:48;;;;;;;9.23;7.43;;;15.00;99.90;;;;;;5037963;28;20210;-54
2023/08/31 07:07:14;;;;;;;7.90;7.10;;;15.10;99.90;;;;;;5021943;28;20198;-57
2023/08/31 07:09:43;;;;;;;8.97;6.70;;;15.20;99.90;;;;;;5036717;28;20203;-56
2023/08/31 07:12:09;;;;;;;7.00;5.93;;;15.20;99.90;;;;;;5023847;28;20199;-57
2023/08/31 07:14:35;;;;;;;10.37;6.47;;;15.10;99.90;;;;;;5024926;28;20220;-68
2023/08/31 07:17:00;;;;;;;5.80;5.33;;;15.20;99.90;;;;;;5033147;28;20191;-58
2023/08/31 07:19:26;;;;;;;10.27;6.53;;;15.10;99.90;;;;;;5015465;28;20258;-56
2023/08/31 07:21:54;;;;;;;8.23;6.57;;;15.20;99.90;;;;;;5042391;28;20197;-63
2023/08/31 07:24:20;;;;;;;8.30;5.97;;;15.30;99.90;;;;;;5038903;28;20194;-55
2023/08/31 07:26:45;;;;;;;9.30;6.13;;;15.40;99.90;;;;;;5034515;28;20192;-56
2023/08/31 07:29:11;;;;;;;8.57;5.70;;;15.20;99.90;;;;;;5038602;28;20190;-55
2023/08/31 07:31:36;;;;;;;8.60;5.63;;;15.20;99.90;;;;;;5034507;28;20211;-57
2023/08/31 07:34:03;;;;;;;6.57;5.40;;;15.30;99.90;;;;;;5014640;28;20233;-56
2023/08/31 07:36:28;;;;;;;7.47;5.20;;;15.20;99.90;;;;;;5035031;28;20223;-55
2023/08/31 07:38:54;;;;;;;5.13;4.63;;;15.20;99.90;;;;;;5021649;28;20880;-55
2023/08/31 07:41:19;;;;;;;4.93;4.47;;;15.40;99.90;;;;;;5039463;28;20227;-57
2023/08/31 07:43:45;;;;;;;4.80;3.73;;;15.40;99.90;;;;;;5041766;28;20206;-56
2023/08/31 07:46:10;;;;;;;7.60;5.17;;;15.40;99.90;;;;;;5027521;28;20231;-56
2023/08/31 07:48:35;;;;;;;6.23;4.13;;;15.40;99.90;;;;;;5036750;28;20236;-54
2023/08/31 07:51:01;;;;;;;4.83;4.13;;;15.30;99.90;;;;;;5032157;28;20786;-57
2023/08/31 07:53:26;;;;;;;4.17;3.83;;;15.10;99.90;;;;;;5037863;28;20253;-57
2023/08/31 07:55:59;;;;;;;8.07;4.27;;;15.00;99.90;;;;;;5040438;28;20198;-58
2023/08/31 07:58:26;;;;;;;5.43;4.00;;;15.10;99.90;;;;;;5011102;28;21061;-62
2023/08/31 08:00:55;;;;;;;4.73;4.33;;;15.30;99.90;;;;;;5038735;28;20199;-58
2023/08/31 08:03:22;;;;;;;6.27;4.27;;;15.40;99.90;;;;;;5017377;28;20734;-55
2023/08/31 08:05:47;;;;;;;5.67;4.80;;;15.50;99.90;;;;;;5029675;28;21150;-65
2023/08/31 08:08:13;;;;;;;4.60;4.13;;;15.30;99.90;;;;;;5014098;28;20202;-65
2023/08/31 08:10:38;;;;;;;4.10;3.20;;;15.40;99.90;;;;;;5031975;28;20202;-55
2023/08/31 08:13:04;;;;;;;3.73;3.43;;;15.90;99.90;;;;;;5031387;28;20552;-55
2023/08/31 08:15:30;;;;;;;4.30;3.90;;;16.10;99.90;;;;;;5028943;28;20199;-54
2023/08/31 08:17:57;;;;;;;3.93;3.33;;;16.20;99.90;;;;;;5035903;28;20469;-54
2023/08/31 08:20:23;;;;;;;5.77;3.50;;;16.20;99.90;;;;;;5038611;28;20197;-55
2023/08/31 08:22:52;;;;;;;6.63;3.33;;;16.30;99.90;;;;;;5015749;28;20259;-65
2023/08/31 08:25:18;;;;;;;4.97;3.13;;;16.20;99.90;;;;;;5033409;28;20190;-54
2023/08/31 08:27:43;;;;;;;2.70;2.50;;;16.30;99.90;;;;;;5035490;28;20199;-55
2023/08/31 08:30:09;;;;;;;4.43;2.60;;;16.40;99.90;;;;;;5034970;28;20305;-58
2023/08/31 08:32:35;;;;;;;6.17;2.93;;;16.40;99.90;;;;;;5034716;28;20240;-57
2023/08/31 08:35:00;;;;;;;3.30;2.40;;;16.60;99.90;;;;;;5038471;28;20214;-57
2023/08/31 08:37:26;;;;;;;4.10;1.90;;;16.60;99.90;;;;;;5034833;28;20202;-62
2023/08/31 08:39:52;;;;;;;6.37;2.27;;;16.70;99.90;;;;;;5027967;28;20274;-67
2023/08/31 08:42:19;;;;;;;2.30;1.97;;;16.60;99.90;;;;;;5036217;28;20217;-62
2023/08/31 08:44:44;;;;;;;3.17;1.93;;;16.60;99.90;;;;;;5018299;28;20205;-55
2023/08/31 08:47:12;;;;;;;2.37;1.57;;;16.40;99.90;;;;;;5034156;28;20276;-55
2023/08/31 08:49:38;;;;;;;2.90;1.80;;;16.50;99.90;;;;;;5037028;28;20191;-54
2023/08/31 08:52:04;;;;;;;4.80;4.03;;;16.40;99.90;;;;;;5037957;28;20223;-54
2023/08/31 08:54:30;;;;;;;3.03;1.50;;;16.20;99.90;;;;;;5021579;28;20218;-57
2023/08/31 08:56:56;;;;;;;7.23;2.10;;;16.10;99.90;;;;;;5037730;28;20582;-60
2023/08/31 08:59:22;;;;;;;3.93;2.10;;;16.10;99.90;;;;;;5029588;28;20665;-57
2023/08/31 09:01:48;;;;;;;4.70;1.53;;;16.20;99.90;;;;;;5034794;28;20608;-64
2023/08/31 09:04:14;;;;;;;2.47;1.50;;;16.50;99.90;;;;;;5019458;28;20224;-64
2023/08/31 09:06:40;;;;;;;8.80;1.70;;;16.60;99.90;;;;;;5021296;28;20763;-56
2023/08/31 09:09:09;;;;;;;3.33;1.90;;;16.70;99.90;;;;;;5032482;28;20207;-55
2023/08/31 09:11:35;;;;;;;3.30;1.63;;;16.80;99.90;;;;;;5038248;28;20190;-55
2023/08/31 09:14:16;;;;;;;1.87;1.67;;;16.90;99.90;;;;;;5031952;28;20230;-56
2023/08/31 09:16:50;;;;;;;3.70;2.03;;;17.00;99.90;;;;;;5041671;28;20251;-57
2023/08/31 09:19:19;;;;;;;3.83;1.63;;;17.10;99.90;;;;;;5041628;28;20197;-58
2023/08/31 09:21:46;;;;;;;1.73;1.63;;;17.00;99.90;;;;;;5040547;28;20316;-57
2023/08/31 09:24:13;;;;;;;3.23;1.40;;;16.90;99.90;;;;;;5036509;28;20205;-57
2023/08/31 09:26:39;;;;;;;5.17;2.47;;;16.60;99.90;;;;;;5029936;28;20931;-58
2023/08/31 09:29:08;;;;;;;2.57;2.10;;;16.60;99.90;;;;;;5035105;28;20206;-57
2023/08/31 09:31:33;;;;;;;6.23;1.90;;;16.50;99.90;;;;;;5044840;28;20405;-57
2023/08/31 09:33:59;;;;;;;3.23;2.00;;;16.40;99.90;;;;;;5016268;28;20726;-57
2023/08/31 09:36:25;;;;;;;3.30;2.20;;;16.50;99.90;;;;;;5038941;28;20232;-57
2023/08/31 09:38:51;;;;;;;2.40;1.60;;;16.60;99.90;;;;;;5022349;28;20702;-58
2023/08/31 09:41:17;;;;;;;2.10;1.80;;;16.70;99.90;;;;;;5038524;28;20299;-58
2023/08/31 09:43:43;;;;;;;1.93;1.20;;;16.80;99.90;;;;;;5020703;28;21019;-58
2023/08/31 09:46:10;;;;;;;3.17;1.80;;;17.00;99.90;;;;;;5034821;28;20204;-56
2023/08/31 09:48:38;;;;;;;3.63;1.57;;;17.10;99.90;;;;;;5044447;28;20223;-55
2023/08/31 09:51:09;;;;;;;3.13;1.50;;;17.20;99.90;;;;;;5013082;28;20210;-55
2023/08/31 09:53:37;;;;;;;5.97;1.80;;;17.40;99.90;;;;;;5016682;28;20882;-55
2023/08/31 09:56:07;;;;;;;2.50;1.70;;;17.50;99.90;;;;;;5036771;28;20196;-61
2023/08/31 09:58:33;;;;;;;4.87;1.40;;;17.60;99.90;;;;;;5035278;28;20203;-56
2023/08/31 10:00:59;;;;;;;3.40;1.40;;;17.70;99.90;;;;;;5037161;28;20689;-58
2023/08/31 10:03:27;;;;;;;4.40;1.73;;;17.50;99.90;;;;;;5041862;28;20205;-55
2023/08/31 10:05:53;;;;;;;3.37;1.40;;;17.60;99.90;;;;;;5030805;28;20271;-55
2023/08/31 10:08:20;;;;;;;3.40;1.50;;;17.60;99.90;;;;;;5034467;28;20199;-54
2023/08/31 10:10:46;;;;;;;1.73;1.00;;;17.70;99.90;;;;;;5031017;28;20273;-54
2023/08/31 10:13:13;;;;;;;2.07;1.20;;;17.50;99.90;;;;;;5029942;28;20675;-55
2023/08/31 10:15:39;;;;;;;1.60;1.50;;;17.60;99.90;;;;;;5032189;28;20199;-55
2023/08/31 10:18:06;;;;;;;1.10;1.10;;;17.60;99.90;;;;;;5036769;28;20305;-55
2023/08/31 10:20:33;;;;;;;6.07;1.50;;;17.70;99.90;;;;;;5035654;28;20210;-56
2023/08/31 10:23:03;;;;;;;2.40;1.47;;;17.70;99.90;;;;;;5038339;28;20279;-55
2023/08/31 10:26:00;;;;;;;7.27;1.30;;;17.50;99.90;;;;;;5040181;28;20191;-55
2023/08/31 10:28:29;;;;;;;7.67;2.50;;;16.30;99.90;;;;;;5038857;28;20681;-55
2023/08/31 10:31:10;;;;;;;4.43;2.13;;;15.60;99.90;;;;;;5011615;28;20602;-59
2023/08/31 10:33:43;;;;;;;2.63;1.73;;;15.20;99.90;;;;;;5011491;28;20214;-58
2023/08/31 10:36:18;;;;;;;2.77;1.77;;;15.00;99.90;;;;;;5033831;28;20290;-62
2023/08/31 10:38:46;;;;;;;2.33;1.70;;;14.80;99.90;;;;;;5037964;28;20202;-56
2023/08/31 10:41:11;;;;;;;4.13;2.53;;;14.60;99.90;;;;;;5033976;28;20191;-56
2023/08/31 10:44:00;;;;;;;2.87;1.97;;;14.50;99.90;;;;;;5035300;28;20209;-55
2023/08/31 10:46:35;;;;;;;2.80;2.40;;;14.40;99.90;;;;;;5043686;28;20224;-56
2023/08/31 10:49:09;;;;;;;2.07;1.80;;;14.40;99.90;;;;;;5026632;28;20612;-58
2023/08/31 10:51:37;;;;;;;3.07;2.00;;;14.30;99.90;;;;;;5035787;28;20675;-57
2023/08/31 10:54:15;;;;;;;2.70;2.17;;;14.20;99.90;;;;;;5031549;28;20271;-57
2023/08/31 10:57:08;;;;;;;2.37;2.20;;;14.30;99.90;;;;;;5038696;28;20212;-55
2023/08/31 10:59:52;;;;;;;2.47;2.10;;;14.30;99.90;;;;;;5040370;28;20209;-54
2023/08/31 11:02:28;;;;;;;3.70;1.93;;;14.40;99.90;;;;;;5038472;28;20209;-54
2023/08/31 11:04:56;;;;;;;4.70;2.27;;;14.30;99.90;;;;;;5037889;28;20199;-58
2023/08/31 11:07:26;;;;;;;2.83;2.17;;;14.30;99.90;;;;;;5029099;28;20681;-60
2023/08/31 11:10:05;;;;;;;3.27;2.63;;;14.50;99.90;;;;;;5034932;28;20199;-57
2023/08/31 11:12:32;;;;;;;5.50;3.13;;;14.70;99.90;;;;;;5024093;28;20695;-57
2023/08/31 11:14:57;;;;;;;2.10;1.97;;;15.10;99.90;;;;;;5033871;28;20272;-57
2023/08/31 11:17:24;;;;;;;3.33;1.83;;;15.50;99.90;;;;;;5036504;28;20206;-57
2023/08/31 11:19:49;;;;;;;3.03;2.10;;;16.20;99.90;;;;;;5034548;28;20677;-57
2023/08/31 11:22:15;;;;;;;4.43;1.60;;;16.60;99.90;;;;;;5034330;28;20195;-58
2023/08/31 11:24:41;;;;;;;6.17;1.90;;;16.60;99.90;;;;;;5014036;28;20237;-56
2023/08/31 11:27:10;;;;;;;1.67;1.40;;;16.20;99.90;;;;;;5030190;28;20268;-57
2023/08/31 11:29:45;;;;;;;1.93;1.77;;;15.90;99.90;;;;;;5030269;28;20206;-57
2023/08/31 11:32:10;;;;;;;2.87;1.90;;;16.00;99.90;;;;;;5017743;28;20531;-56
2023/08/31 11:34:44;;;;;;;2.27;2.07;;;16.20;99.90;;;;;;5016396;28;20313;-53
2023/08/31 11:37:14;;;;;;;3.07;2.07;;;16.30;99.90;;;;;;5024751;28;20229;-56
2023/08/31 11:39:42;;;;;;;7.10;2.97;;;16.00;99.90;;;;;;5009039;28;20916;-55
2023/08/31 11:42:08;;;;;;;2.67;2.30;;;16.00;99.90;;;;;;5033994;28;20201;-55
2023/08/31 11:44:34;;;;;;;3.27;1.97;;;15.90;99.90;;;;;;5026805;28;20259;-55
2023/08/31 11:47:00;;;;;;;3.53;2.50;;;15.70;99.90;;;;;;5015445;28;20246;-54
2023/08/31 11:49:27;;;;;;;5.93;2.53;;;15.60;99.90;;;;;;5033356;28;20835;-54
2023/08/31 11:51:53;;;;;;;4.40;2.47;;;15.30;99.90;;;;;;5031335;28;20207;-53
2023/08/31 11:54:19;;;;;;;3.93;2.83;;;15.40;99.90;;;;;;5033584;28;20302;-53
2023/08/31 11:56:48;;;;;;;3.07;2.77;;;15.40;99.90;;;;;;5013779;28;20310;-54
2023/08/31 11:59:18;;;;;;;6.63;2.77;;;15.40;99.90;;;;;;5030211;28;20191;-56
2023/08/31 12:01:47;;;;;;;6.40;3.60;;;15.50;99.90;;;;;;5038023;28;20207;-58
2023/08/31 12:04:14;;;;;;;2.63;2.07;;;16.00;99.90;;;;;;5036805;28;20621;-57
2023/08/31 12:06:40;;;;;;;6.57;2.40;;;16.80;99.90;;;;;;5034054;28;20304;-61
2023/08/31 12:09:08;;;;;;;3.90;2.77;;;17.00;99.90;;;;;;5029292;28;21023;-59
2023/08/31 12:11:33;;;;;;;3.03;2.67;;;16.70;99.90;;;;;;5013928;28;20543;-58
2023/08/31 12:14:06;;;;;;;3.83;2.50;;;16.70;99.90;;;;;;5034242;28;20223;-58
2023/08/31 12:16:36;;;;;;;5.27;2.73;;;16.70;99.90;;;;;;5006831;28;20206;-58
2023/08/31 12:19:05;;;;;;;4.67;2.43;;;17.00;99.90;;;;;;5030384;28;20184;-59
2023/08/31 12:21:33;;;;;;;3.03;2.13;;;17.10;99.90;;;;;;5028264;28;20710;-62
2023/08/31 12:23:59;;;;;;;4.67;2.53;;;17.30;99.90;;;;;;5033374;28;20234;-60
2023/08/31 12:26:25;;;;;;;3.20;2.33;;;18.10;99.90;;;;;;5036830;28;20867;-60
2023/08/31 12:28:51;;;;;;;4.03;2.67;;;18.80;99.90;;;;;;5038625;28;20219;-61
2023/08/31 12:31:16;;;;;;;3.37;2.20;;;19.20;99.90;;;;;;5035047;28;20201;-60
2023/08/31 12:33:42;;;;;;;2.87;1.90;;;19.30;99.90;;;;;;5030626;28;20218;-60
2023/08/31 12:36:07;;;;;;;2.03;1.90;;;19.90;99.90;;;;;;5037767;28;20230;-59
2023/08/31 12:38:33;;;;;;;4.37;2.23;;;20.20;99.90;;;;;;5039170;28;20280;-60
2023/08/31 12:40:59;;;;;;;2.20;2.00;;;19.90;99.90;;;;;;5028371;28;20224;-59
2023/08/31 12:43:24;;;;;;;1.60;1.50;;;20.30;99.90;;;;;;5010148;28;20197;-59
2023/08/31 12:45:50;;;;;;;3.03;2.60;;;21.00;99.90;;;;;;5025426;28;20677;-60